Time;durP1;ratioP1;P1;durP2;ratioP2;P2;SDS_P1;SDS_P2;PMS_P1;PMS_P2;Temp;Humidity;BMP_temperature;BMP_pressure;BME280_temperature;BME280_humidity;BME280_pressure;Samples;Min_cycle;Max_cycle;Signal;HPM_P1;HPM_P2
2023/08/13 00:02:17;;;;;;;8.53;4.80;;;15.10;99.90;;;;;;4970228;28;20376;-55
2023/08/13 00:04:44;;;;;;;6.50;3.93;;;15.10;99.90;;;;;;4977870;28;20217;-53
2023/08/13 00:07:11;;;;;;;6.37;4.10;;;15.10;99.90;;;;;;4948016;28;20318;-50
2023/08/13 00:09:38;;;;;;;6.30;4.47;;;15.10;99.90;;;;;;4971978;28;20685;-56
2023/08/13 00:12:07;;;;;;;8.97;4.13;;;15.10;99.90;;;;;;4973128;28;20198;-54
2023/08/13 00:14:34;;;;;;;6.10;3.90;;;15.10;99.90;;;;;;4957321;28;20504;-54
2023/08/13 00:17:00;;;;;;;5.30;3.77;;;15.10;99.90;;;;;;4974301;28;20214;-52
2023/08/13 00:19:27;;;;;;;8.37;4.00;;;15.10;99.90;;;;;;4954214;28;20371;-54
2023/08/13 00:21:55;;;;;;;5.37;3.73;;;15.00;99.90;;;;;;4951222;28;20201;-51
2023/08/13 00:24:22;;;;;;;9.73;4.50;;;15.00;99.90;;;;;;4964017;29;20230;-60
2023/08/13 00:26:49;;;;;;;5.43;4.10;;;14.90;99.90;;;;;;4972144;28;20234;-58
2023/08/13 00:29:17;;;;;;;7.50;3.50;;;15.00;99.90;;;;;;4958246;28;20237;-60
2023/08/13 00:31:44;;;;;;;7.73;4.63;;;14.90;99.90;;;;;;4967266;28;20202;-60
2023/08/13 00:34:11;;;;;;;6.73;3.17;;;14.90;99.90;;;;;;4967244;28;20250;-52
2023/08/13 00:36:38;;;;;;;6.17;3.60;;;14.90;99.90;;;;;;4950892;28;20206;-57
2023/08/13 00:39:05;;;;;;;5.73;3.40;;;14.90;99.90;;;;;;4967966;29;20198;-51
2023/08/13 00:41:32;;;;;;;9.03;3.90;;;14.90;99.90;;;;;;4959945;29;20201;-53
2023/08/13 00:43:58;;;;;;;5.80;3.13;;;14.90;99.90;;;;;;4968466;28;20199;-53
2023/08/13 00:46:27;;;;;;;3.57;3.17;;;14.90;99.90;;;;;;4955941;28;20487;-55
2023/08/13 00:48:59;;;;;;;10.07;3.83;;;14.80;99.90;;;;;;4960844;28;20222;-52
2023/08/13 00:51:26;;;;;;;4.97;3.30;;;14.80;99.90;;;;;;4974600;28;20245;-54
2023/08/13 00:53:54;;;;;;;4.43;2.73;;;14.80;99.90;;;;;;4952595;28;20207;-55
2023/08/13 00:56:23;;;;;;;7.23;3.23;;;14.80;99.90;;;;;;4959128;28;20206;-58
2023/08/13 00:58:51;;;;;;;3.13;2.77;;;14.70;99.90;;;;;;4974561;28;20202;-55
2023/08/13 01:01:17;;;;;;;5.43;3.27;;;14.70;99.90;;;;;;4955363;28;20249;-52
2023/08/13 01:03:46;;;;;;;7.00;4.10;;;14.70;99.90;;;;;;4965106;28;20182;-57
2023/08/13 01:06:21;;;;;;;5.00;3.07;;;14.70;99.90;;;;;;4967622;28;20237;-53
2023/08/13 01:08:55;;;;;;;5.43;3.30;;;14.70;99.90;;;;;;4936437;29;20218;-58
2023/08/13 01:11:31;;;;;;;4.53;3.20;;;14.60;99.90;;;;;;4954964;28;20238;-56
2023/08/13 01:14:08;;;;;;;5.23;3.00;;;14.60;99.90;;;;;;4951631;29;20222;-52
2023/08/13 01:16:37;;;;;;;5.10;3.27;;;14.60;99.90;;;;;;4971138;28;20185;-57
2023/08/13 01:19:08;;;;;;;4.97;3.30;;;14.60;99.90;;;;;;4941295;28;20218;-52
2023/08/13 01:21:35;;;;;;;4.10;3.00;;;14.60;99.90;;;;;;4974293;28;20175;-55
2023/08/13 01:24:04;;;;;;;5.20;3.37;;;14.50;99.90;;;;;;4956513;28;20202;-51
2023/08/13 01:26:36;;;;;;;3.73;3.10;;;14.50;99.90;;;;;;4975006;28;20213;-56
2023/08/13 01:29:10;;;;;;;6.43;3.40;;;14.50;99.90;;;;;;4975538;28;20186;-51
2023/08/13 01:31:39;;;;;;;6.13;3.10;;;14.60;99.90;;;;;;4969092;28;20186;-53
2023/08/13 01:34:07;;;;;;;6.53;2.93;;;14.50;99.90;;;;;;4935939;28;20191;-51
2023/08/13 01:36:35;;;;;;;5.80;2.97;;;14.50;99.90;;;;;;4970461;28;20183;-59
2023/08/13 01:39:05;;;;;;;5.30;2.87;;;14.50;99.90;;;;;;4950642;28;20203;-51
2023/08/13 01:41:36;;;;;;;3.33;2.97;;;14.40;99.90;;;;;;4969498;29;20297;-56
2023/08/13 01:44:03;;;;;;;5.70;3.53;;;14.50;99.90;;;;;;4955036;28;20199;-47
2023/08/13 01:46:30;;;;;;;8.03;3.03;;;14.40;99.90;;;;;;4968395;28;20214;-56
2023/08/13 01:48:57;;;;;;;5.13;3.10;;;14.50;99.90;;;;;;4945245;29;20210;-52
2023/08/13 01:51:24;;;;;;;4.37;2.70;;;14.40;99.90;;;;;;4958687;28;20314;-52
2023/08/13 01:53:50;;;;;;;3.67;2.70;;;14.50;99.90;;;;;;4973077;28;20187;-56
2023/08/13 01:56:19;;;;;;;5.97;3.37;;;14.50;99.90;;;;;;4946223;28;20596;-56
2023/08/13 01:58:46;;;;;;;6.67;2.73;;;14.50;99.90;;;;;;4977429;28;20191;-52
2023/08/13 02:01:12;;;;;;;6.70;3.17;;;14.50;99.90;;;;;;4958313;28;20190;-50
2023/08/13 02:03:40;;;;;;;4.90;2.80;;;14.50;99.90;;;;;;4953123;28;20197;-53
2023/08/13 02:06:07;;;;;;;5.40;3.03;;;14.60;99.90;;;;;;4971766;28;20221;-50
2023/08/13 02:08:34;;;;;;;4.27;2.70;;;14.60;99.90;;;;;;4973167;28;20678;-55
2023/08/13 02:11:01;;;;;;;5.53;2.70;;;14.70;99.90;;;;;;4953801;28;20222;-51
2023/08/13 02:13:30;;;;;;;5.97;2.80;;;14.70;99.90;;;;;;4961535;28;20222;-52
2023/08/13 02:16:02;;;;;;;6.47;2.90;;;14.80;99.90;;;;;;4975377;28;20261;-50
2023/08/13 02:18:29;;;;;;;5.03;2.90;;;14.80;99.90;;;;;;4967272;28;20203;-55
2023/08/13 02:20:56;;;;;;;7.27;2.80;;;14.90;99.90;;;;;;4973246;28;20179;-52
2023/08/13 02:23:23;;;;;;;8.80;3.20;;;15.00;99.90;;;;;;4974070;28;20183;-52
2023/08/13 02:25:50;;;;;;;4.20;2.80;;;15.00;99.90;;;;;;4983007;28;20246;-52
2023/08/13 02:28:17;;;;;;;4.63;2.87;;;15.10;99.90;;;;;;4950844;28;20230;-57
2023/08/13 02:30:45;;;;;;;11.23;4.33;;;15.10;99.90;;;;;;4977349;28;20205;-55
2023/08/13 02:33:12;;;;;;;7.30;2.87;;;15.10;99.90;;;;;;4945493;28;20187;-50
2023/08/13 02:35:39;;;;;;;5.13;3.03;;;15.20;99.90;;;;;;4964973;28;20220;-57
2023/08/13 02:38:06;;;;;;;4.53;2.70;;;15.20;99.90;;;;;;4971462;28;20198;-49
2023/08/13 02:40:33;;;;;;;8.23;3.07;;;15.20;99.90;;;;;;4969432;28;20234;-54
2023/08/13 02:43:00;;;;;;;6.17;2.87;;;15.30;99.90;;;;;;4938828;29;20273;-49
2023/08/13 02:45:27;;;;;;;5.07;3.10;;;15.30;99.90;;;;;;4971897;28;20479;-50
2023/08/13 02:47:56;;;;;;;6.33;3.03;;;15.30;99.90;;;;;;4973861;28;20226;-51
2023/08/13 02:50:24;;;;;;;4.63;2.77;;;15.40;99.90;;;;;;4964175;28;20277;-56
2023/08/13 02:52:51;;;;;;;6.77;3.30;;;15.40;99.90;;;;;;4973070;28;20191;-51
2023/08/13 02:55:18;;;;;;;5.07;2.80;;;15.40;99.90;;;;;;4967942;28;20211;-52
2023/08/13 02:57:45;;;;;;;5.70;2.80;;;15.40;99.90;;;;;;4953779;28;20202;-52
2023/08/13 03:00:13;;;;;;;7.53;3.00;;;15.40;99.90;;;;;;4969018;28;20233;-54
2023/08/13 03:02:40;;;;;;;5.60;3.00;;;15.40;99.90;;;;;;4980678;28;20270;-55
2023/08/13 03:05:08;;;;;;;6.10;2.43;;;15.40;99.90;;;;;;4954833;28;20214;-50
2023/08/13 03:07:35;;;;;;;6.93;2.60;;;15.30;99.90;;;;;;4967496;28;20291;-51
2023/08/13 03:10:03;;;;;;;8.73;3.20;;;15.30;99.90;;;;;;4962043;28;20205;-48
2023/08/13 03:12:30;;;;;;;3.10;2.53;;;15.20;99.90;;;;;;4941184;28;20218;-51
2023/08/13 03:14:57;;;;;;;7.73;3.27;;;15.20;99.90;;;;;;4965834;29;20415;-50
2023/08/13 03:17:24;;;;;;;6.67;3.03;;;15.20;99.90;;;;;;4972273;28;20191;-54
2023/08/13 03:19:51;;;;;;;5.60;2.47;;;15.20;99.90;;;;;;4965196;28;20493;-53
2023/08/13 03:22:19;;;;;;;6.27;2.33;;;15.10;99.90;;;;;;4979459;28;20222;-53
2023/08/13 03:24:46;;;;;;;4.27;2.87;;;15.10;99.90;;;;;;4959344;29;20206;-47
2023/08/13 03:27:13;;;;;;;9.03;3.13;;;15.00;99.90;;;;;;4973225;28;20197;-54
2023/08/13 03:29:40;;;;;;;2.83;2.50;;;15.00;99.90;;;;;;4951580;28;20210;-52
2023/08/13 03:32:09;;;;;;;5.57;2.67;;;14.90;99.90;;;;;;4976627;28;20195;-52
2023/08/13 03:34:37;;;;;;;5.77;2.60;;;14.90;99.90;;;;;;4981494;28;20439;-52
2023/08/13 03:37:04;;;;;;;9.47;3.27;;;14.80;99.90;;;;;;4955331;28;20207;-56
2023/08/13 03:39:32;;;;;;;6.67;2.67;;;14.80;99.90;;;;;;4970809;28;20654;-51
2023/08/13 03:41:59;;;;;;;5.43;2.77;;;14.70;99.90;;;;;;4970018;28;20214;-55
2023/08/13 03:44:28;;;;;;;5.80;2.50;;;14.70;99.90;;;;;;4958963;28;20223;-49
2023/08/13 03:46:55;;;;;;;5.30;2.97;;;14.60;99.90;;;;;;4958331;29;20489;-55
2023/08/13 03:49:22;;;;;;;10.53;3.30;;;14.60;99.90;;;;;;4961653;28;20217;-52
2023/08/13 03:51:48;;;;;;;4.90;2.40;;;14.50;99.90;;;;;;4945800;28;20226;-55
2023/08/13 03:54:16;;;;;;;5.33;2.27;;;14.50;99.90;;;;;;4975386;28;20206;-53
2023/08/13 03:56:44;;;;;;;9.00;2.77;;;14.60;99.90;;;;;;4979366;28;20191;-50
2023/08/13 03:59:11;;;;;;;6.87;2.67;;;14.50;99.90;;;;;;4951931;28;20202;-59
2023/08/13 04:01:38;;;;;;;4.70;2.73;;;14.50;99.90;;;;;;4973682;28;20208;-51
2023/08/13 04:04:06;;;;;;;4.63;2.30;;;14.50;99.90;;;;;;4970800;28;20201;-53
2023/08/13 04:06:33;;;;;;;9.33;2.63;;;14.50;99.90;;;;;;4966478;28;20217;-52
2023/08/13 04:09:00;;;;;;;5.23;2.50;;;14.50;99.90;;;;;;4946581;29;20221;-53
2023/08/13 04:11:27;;;;;;;7.80;2.40;;;14.40;99.90;;;;;;4979055;28;20254;-55
2023/08/13 04:13:55;;;;;;;5.30;2.40;;;14.50;99.90;;;;;;4948635;28;20294;-51
2023/08/13 04:16:23;;;;;;;6.27;3.10;;;14.40;99.90;;;;;;4955703;28;20203;-52
2023/08/13 04:18:51;;;;;;;6.27;2.17;;;14.40;99.90;;;;;;4959058;28;20778;-53
2023/08/13 04:21:18;;;;;;;5.57;2.70;;;14.40;99.90;;;;;;4971831;28;20195;-55
2023/08/13 04:23:44;;;;;;;4.47;2.23;;;14.40;99.90;;;;;;4960541;28;20209;-53
2023/08/13 04:26:11;;;;;;;4.90;2.20;;;14.40;99.90;;;;;;4974362;28;20205;-52
2023/08/13 04:28:38;;;;;;;7.47;2.83;;;14.40;99.90;;;;;;4971209;28;20194;-55
2023/08/13 04:31:07;;;;;;;4.17;2.27;;;14.40;99.90;;;;;;4936546;29;20206;-50
2023/08/13 04:33:37;;;;;;;5.90;2.63;;;14.40;99.90;;;;;;4977727;28;20219;-54
2023/08/13 04:36:04;;;;;;;7.10;2.63;;;14.40;99.90;;;;;;4962935;28;20223;-53
2023/08/13 04:38:31;;;;;;;4.17;2.70;;;14.40;99.90;;;;;;4962941;28;20206;-56
2023/08/13 04:41:02;;;;;;;6.60;2.90;;;14.30;99.90;;;;;;4974214;28;20187;-49
2023/08/13 04:43:30;;;;;;;6.90;2.83;;;14.40;99.90;;;;;;4978441;28;20370;-54
2023/08/13 04:45:57;;;;;;;7.70;2.90;;;14.40;99.90;;;;;;4950194;28;20226;-51
2023/08/13 04:48:44;;;;;;;5.33;3.33;;;14.40;99.90;;;;;;4958314;28;20230;-55
2023/08/13 04:51:12;;;;;;;6.83;3.27;;;14.50;99.90;;;;;;4944820;29;20197;-51
2023/08/13 04:53:39;;;;;;;5.97;3.17;;;14.60;99.90;;;;;;4968514;28;20187;-54
2023/08/13 04:56:07;;;;;;;8.00;3.33;;;14.60;99.90;;;;;;4956331;28;20229;-50
2023/08/13 04:58:34;;;;;;;8.03;3.37;;;14.70;99.90;;;;;;4967757;28;20195;-54
2023/08/13 05:01:01;;;;;;;5.43;3.57;;;14.70;99.90;;;;;;4946230;28;20223;-54
2023/08/13 05:03:29;;;;;;;9.00;3.83;;;14.80;99.90;;;;;;4978355;28;20187;-52
2023/08/13 05:05:57;;;;;;;5.00;4.13;;;14.90;99.90;;;;;;4966135;28;20231;-53
2023/08/13 05:08:24;;;;;;;11.20;4.00;;;14.90;99.90;;;;;;4950072;29;20282;-56
2023/08/13 05:10:52;;;;;;;5.03;3.60;;;14.90;99.90;;;;;;4942819;29;20262;-54
2023/08/13 05:13:19;;;;;;;6.33;3.47;;;15.00;99.90;;;;;;4967816;28;20337;-57
2023/08/13 05:15:46;;;;;;;3.87;3.33;;;15.00;99.90;;;;;;4947995;28;20210;-54
2023/08/13 05:18:13;;;;;;;10.60;3.73;;;15.10;99.90;;;;;;4951061;29;20478;-54
2023/08/13 05:20:40;;;;;;;7.30;3.40;;;15.10;99.90;;;;;;4980810;28;20233;-54
2023/08/13 05:23:08;;;;;;;12.23;3.83;;;15.20;99.90;;;;;;4960874;28;20194;-50
2023/08/13 05:25:38;;;;;;;6.13;3.67;;;15.20;99.90;;;;;;4965698;28;20217;-56
2023/08/13 05:28:07;;;;;;;6.10;3.23;;;15.30;99.90;;;;;;4968633;28;20262;-52
2023/08/13 05:30:35;;;;;;;9.43;3.60;;;15.30;99.90;;;;;;4958123;28;20206;-53
2023/08/13 05:33:03;;;;;;;8.63;3.63;;;15.40;99.90;;;;;;4967495;28;20191;-51
2023/08/13 05:35:30;;;;;;;4.93;3.63;;;15.40;99.90;;;;;;4975410;28;20249;-55
2023/08/13 05:37:57;;;;;;;8.13;3.03;;;15.50;99.90;;;;;;4965272;28;20187;-52
2023/08/13 05:40:26;;;;;;;6.33;3.67;;;15.50;99.90;;;;;;4942085;28;20213;-56
2023/08/13 05:42:53;;;;;;;6.57;3.53;;;15.60;99.90;;;;;;4952201;29;20186;-51
2023/08/13 05:45:19;;;;;;;5.27;3.20;;;15.60;99.90;;;;;;4946429;28;20242;-52
2023/08/13 05:47:46;;;;;;;5.23;3.67;;;15.70;99.90;;;;;;4968404;29;20747;-54
2023/08/13 05:50:13;;;;;;;9.23;3.87;;;15.80;99.90;;;;;;4968691;28;20206;-51
2023/08/13 05:52:41;;;;;;;5.90;3.87;;;15.80;99.90;;;;;;4970712;28;20225;-56
2023/08/13 05:55:08;;;;;;;7.13;3.90;;;15.90;99.90;;;;;;4958655;29;20308;-52
2023/08/13 05:57:36;;;;;;;4.83;3.20;;;16.00;99.90;;;;;;4957337;28;20198;-56
2023/08/13 06:00:09;;;;;;;4.00;3.57;;;16.00;99.90;;;;;;4968930;28;20189;-52
2023/08/13 06:02:39;;;;;;;6.97;3.87;;;16.10;99.90;;;;;;4950171;28;20241;-56
2023/08/13 06:05:07;;;;;;;8.50;4.23;;;16.10;99.90;;;;;;4968882;28;20242;-51
2023/08/13 06:07:34;;;;;;;8.70;3.53;;;16.10;99.90;;;;;;4970388;28;20227;-53
2023/08/13 06:10:02;;;;;;;6.30;3.37;;;16.20;99.90;;;;;;4954959;28;20581;-54
2023/08/13 06:12:29;;;;;;;8.53;4.33;;;16.30;99.90;;;;;;4957904;28;20218;-55
2023/08/13 06:14:58;;;;;;;8.57;3.30;;;16.40;99.90;;;;;;4968345;28;20221;-56
2023/08/13 06:17:25;;;;;;;7.90;3.20;;;16.40;99.90;;;;;;4943364;28;20268;-52
2023/08/13 06:19:53;;;;;;;8.67;3.63;;;16.50;99.90;;;;;;4967234;28;20213;-53
2023/08/13 06:22:20;;;;;;;6.63;3.93;;;16.50;99.90;;;;;;4969539;28;20194;-54
2023/08/13 06:24:47;;;;;;;5.80;2.90;;;16.50;99.90;;;;;;4961721;28;20248;-53
2023/08/13 06:27:14;;;;;;;7.57;3.40;;;16.50;99.90;;;;;;4953874;28;20183;-57
2023/08/13 06:29:41;;;;;;;10.37;3.43;;;16.50;99.90;;;;;;4967958;28;20230;-51
2023/08/13 06:32:09;;;;;;;7.00;3.27;;;16.50;99.90;;;;;;4944865;28;20250;-54
2023/08/13 06:34:36;;;;;;;6.07;3.40;;;16.50;99.90;;;;;;4961966;28;20239;-53
2023/08/13 06:37:03;;;;;;;6.97;3.43;;;16.50;99.90;;;;;;4970747;28;20216;-57
2023/08/13 06:39:30;;;;;;;5.60;3.13;;;16.50;99.90;;;;;;4971827;28;20262;-52
2023/08/13 06:41:58;;;;;;;8.97;3.37;;;16.50;99.90;;;;;;4962786;28;20273;-58
2023/08/13 06:44:29;;;;;;;7.17;3.30;;;16.50;99.90;;;;;;4951952;28;20226;-53
2023/08/13 06:46:56;;;;;;;6.67;3.50;;;16.60;99.90;;;;;;4969269;28;20219;-55
2023/08/13 06:49:24;;;;;;;4.87;2.83;;;16.60;99.90;;;;;;4947841;28;20278;-51
2023/08/13 06:51:51;;;;;;;6.03;3.17;;;16.70;99.90;;;;;;4972727;28;20195;-58
2023/08/13 06:54:18;;;;;;;5.83;3.47;;;16.80;99.90;;;;;;4975241;28;20289;-55
2023/08/13 06:56:45;;;;;;;4.43;3.40;;;16.90;99.90;;;;;;4960386;28;20913;-56
2023/08/13 06:59:12;;;;;;;3.93;2.70;;;17.00;99.90;;;;;;4954165;28;20207;-54
2023/08/13 07:01:39;;;;;;;8.60;3.27;;;17.00;99.90;;;;;;4964960;28;20205;-51
2023/08/13 07:04:07;;;;;;;5.87;3.07;;;17.10;99.90;;;;;;4950234;28;20201;-54
2023/08/13 07:06:35;;;;;;;9.00;4.20;;;17.30;99.90;;;;;;4969976;28;20209;-52
2023/08/13 07:09:03;;;;;;;8.50;3.03;;;17.30;99.90;;;;;;4977968;28;20231;-52
2023/08/13 07:11:32;;;;;;;6.33;3.20;;;17.40;99.90;;;;;;4962610;28;20246;-47
2023/08/13 07:13:59;;;;;;;8.67;3.17;;;17.50;99.90;;;;;;4947941;28;20230;-54
2023/08/13 07:16:26;;;;;;;13.23;3.80;;;17.60;99.90;;;;;;4972522;28;20198;-48
2023/08/13 07:18:52;;;;;;;6.10;3.67;;;17.70;99.90;;;;;;4946130;28;20225;-53
2023/08/13 07:21:19;;;;;;;6.23;3.20;;;17.80;99.90;;;;;;4972255;28;20179;-50
2023/08/13 07:23:48;;;;;;;5.80;3.47;;;17.90;99.90;;;;;;4967560;28;20202;-53
2023/08/13 07:26:15;;;;;;;4.50;3.00;;;17.90;99.90;;;;;;4984085;28;20202;-53
2023/08/13 07:28:44;;;;;;;7.23;3.10;;;18.00;99.90;;;;;;4947958;28;20380;-56
2023/08/13 07:31:11;;;;;;;7.70;3.33;;;18.00;99.90;;;;;;4976330;28;20178;-55
2023/08/13 07:33:37;;;;;;;5.53;3.13;;;18.20;99.90;;;;;;4970033;28;20206;-56
2023/08/13 07:36:05;;;;;;;8.73;3.87;;;18.30;99.90;;;;;;4952703;28;20230;-56
2023/08/13 07:38:33;;;;;;;8.37;2.77;;;18.30;99.90;;;;;;4972232;28;20205;-53
2023/08/13 07:41:03;;;;;;;6.63;2.77;;;18.40;99.90;;;;;;4975045;28;20183;-55
2023/08/13 07:43:31;;;;;;;9.33;2.63;;;18.50;99.90;;;;;;4966672;28;20194;-52
2023/08/13 07:45:58;;;;;;;5.60;2.40;;;18.60;99.90;;;;;;4963661;28;20245;-53
2023/08/13 07:48:25;;;;;;;7.00;2.53;;;18.70;99.90;;;;;;4963225;28;20238;-50
2023/08/13 07:50:52;;;;;;;6.30;2.13;;;18.80;99.90;;;;;;4946490;28;20210;-56
2023/08/13 07:53:19;;;;;;;5.00;2.43;;;18.90;99.90;;;;;;4969434;28;20283;-52
2023/08/13 07:55:49;;;;;;;5.30;2.87;;;19.10;99.90;;;;;;4973329;28;20248;-54
2023/08/13 07:58:17;;;;;;;6.13;2.27;;;19.10;99.90;;;;;;4965041;28;20198;-51
2023/08/13 08:00:44;;;;;;;6.33;2.30;;;19.20;99.90;;;;;;4954166;28;20198;-54
2023/08/13 08:03:11;;;;;;;7.17;2.43;;;19.20;99.90;;;;;;4969219;28;20211;-54
2023/08/13 08:05:38;;;;;;;7.13;2.73;;;19.20;99.90;;;;;;4947194;28;20524;-53
2023/08/13 08:08:05;;;;;;;6.83;2.83;;;19.20;99.90;;;;;;4968876;28;20202;-54
2023/08/13 08:10:32;;;;;;;6.53;2.30;;;19.30;99.90;;;;;;4966518;28;20960;-58
2023/08/13 08:12:59;;;;;;;7.17;2.73;;;19.40;99.90;;;;;;4965214;28;20202;-55
2023/08/13 08:15:27;;;;;;;7.93;2.37;;;19.50;99.90;;;;;;4942930;28;20219;-52
2023/08/13 08:17:54;;;;;;;6.27;2.10;;;19.50;99.90;;;;;;4961113;28;20202;-60
2023/08/13 08:20:21;;;;;;;6.77;2.00;;;19.70;99.90;;;;;;4949140;28;20214;-51
2023/08/13 08:22:48;;;;;;;3.63;1.50;;;19.70;99.90;;;;;;4958871;28;20201;-59
2023/08/13 08:25:15;;;;;;;6.37;2.17;;;19.80;99.90;;;;;;4966583;28;20226;-53
2023/08/13 08:27:41;;;;;;;6.83;1.80;;;19.80;99.90;;;;;;4967609;28;20516;-58
2023/08/13 08:30:09;;;;;;;5.97;1.77;;;19.80;99.90;;;;;;4958205;28;20229;-59
2023/08/13 08:32:37;;;;;;;6.93;2.03;;;19.90;99.90;;;;;;4938644;28;20186;-56
2023/08/13 08:35:06;;;;;;;4.67;1.30;;;20.00;99.90;;;;;;4950705;28;20726;-59
2023/08/13 08:37:34;;;;;;;4.90;1.67;;;20.00;99.90;;;;;;4927606;28;20226;-59
2023/08/13 08:40:00;;;;;;;2.70;1.65;;;20.10;99.90;;;;;;4953309;28;20544;-59
2023/08/13 08:42:27;;;;;;;5.63;2.00;;;20.10;99.90;;;;;;4949533;28;20202;-55
2023/08/13 08:44:54;;;;;;;3.83;1.63;;;20.10;99.90;;;;;;4956105;28;20222;-59
2023/08/13 08:47:23;;;;;;;2.57;1.23;;;20.20;99.90;;;;;;4934838;28;20214;-51
2023/08/13 08:49:52;;;;;;;4.67;1.80;;;20.20;99.90;;;;;;4940336;29;20223;-60
2023/08/13 08:52:19;;;;;;;3.30;1.70;;;20.20;99.90;;;;;;4929770;28;20293;-55
2023/08/13 08:54:48;;;;;;;5.50;1.67;;;20.30;99.90;;;;;;4951606;28;20219;-55
2023/08/13 08:57:15;;;;;;;4.93;1.70;;;20.30;99.90;;;;;;4954008;28;20194;-48
2023/08/13 08:59:42;;;;;;;1.88;1.63;;;20.30;99.90;;;;;;4949405;28;20190;-54
2023/08/13 09:02:11;;;;;;;4.65;1.90;;;20.40;99.90;;;;;;4930672;28;20206;-53
2023/08/13 09:04:38;;;;;;;4.80;1.85;;;20.40;99.90;;;;;;4944798;28;20226;-51
2023/08/13 09:07:06;;;;;;;2.65;1.50;;;20.60;99.90;;;;;;4919479;28;20696;-57
2023/08/13 09:09:33;;;;;;;3.72;1.30;;;20.70;99.90;;;;;;4942060;28;20215;-55
2023/08/13 09:12:00;;;;;;;2.28;1.55;;;20.60;99.90;;;;;;4946060;28;20211;-58
2023/08/13 09:14:28;;;;;;;3.70;1.50;;;20.60;99.90;;;;;;4946914;28;20698;-53
2023/08/13 09:16:56;;;;;;;3.05;1.70;;;20.60;99.90;;;;;;4933876;28;20254;-55
2023/08/13 09:19:24;;;;;;;3.60;1.70;;;20.60;99.90;;;;;;4933743;28;20226;-54
2023/08/13 09:21:52;;;;;;;2.75;1.63;;;20.60;99.90;;;;;;4945696;28;20685;-59
2023/08/13 09:24:30;;;;;;;2.83;1.23;;;20.70;99.90;;;;;;4913696;28;20572;-53
2023/08/13 09:26:57;;;;;;;2.60;1.20;;;20.70;99.90;;;;;;4947169;28;20689;-57
2023/08/13 09:29:24;;;;;;;3.83;1.27;;;20.80;99.90;;;;;;4939776;28;20225;-59
2023/08/13 09:31:51;;;;;;;2.20;1.42;;;20.90;99.90;;;;;;4945429;29;20663;-60
2023/08/13 09:34:18;;;;;;;4.68;1.23;;;21.00;99.90;;;;;;4924443;28;20293;-53
2023/08/13 09:36:45;;;;;;;4.05;1.40;;;21.00;99.90;;;;;;4945110;28;20207;-59
2023/08/13 09:39:12;;;;;;;3.85;1.33;;;21.10;99.90;;;;;;4923427;28;20625;-52
2023/08/13 09:41:41;;;;;;;5.03;1.38;;;21.20;99.90;;;;;;4943789;28;20187;-59
2023/08/13 09:44:10;;;;;;;3.72;1.27;;;21.20;99.90;;;;;;4948721;28;20210;-56
2023/08/13 09:46:41;;;;;;;2.03;1.30;;;21.30;99.90;;;;;;4938180;28;20800;-58
2023/08/13 09:49:11;;;;;;;3.65;1.33;;;21.30;99.90;;;;;;4935354;28;20206;-50
2023/08/13 09:51:42;;;;;;;4.88;1.38;;;21.30;99.90;;;;;;4941846;28;20245;-58
2023/08/13 09:54:14;;;;;;;2.75;1.60;;;21.20;99.90;;;;;;4936398;28;20232;-53
2023/08/13 09:56:45;;;;;;;2.17;1.45;;;21.20;99.90;;;;;;4939268;28;20218;-55
2023/08/13 09:59:12;;;;;;;2.90;1.08;;;21.30;99.90;;;;;;4952632;28;20213;-50
2023/08/13 10:01:40;;;;;;;2.13;1.40;;;21.40;99.90;;;;;;4937696;28;20746;-61
2023/08/13 10:04:09;;;;;;;2.88;1.10;;;21.50;99.90;;;;;;4933261;28;20202;-54
2023/08/13 10:06:36;;;;;;;2.97;1.10;;;21.70;99.90;;;;;;4942587;28;20202;-56
2023/08/13 10:09:03;;;;;;;3.58;1.17;;;21.90;99.90;;;;;;4934850;28;20202;-53
2023/08/13 10:11:30;;;;;;;6.18;1.27;;;22.00;99.90;;;;;;4923014;28;20985;-58
2023/08/13 10:13:58;;;;;;;3.13;1.70;;;22.00;99.90;;;;;;4947755;28;20198;-57
2023/08/13 10:16:27;;;;;;;3.35;1.08;;;22.00;99.90;;;;;;4939663;28;20202;-60
2023/08/13 10:18:57;;;;;;;4.03;1.20;;;21.90;99.90;;;;;;4940304;28;20202;-52
2023/08/13 10:21:34;;;;;;;1.70;1.35;;;21.80;99.90;;;;;;4930787;28;20221;-58
2023/08/13 10:24:02;;;;;;;3.00;1.55;;;21.70;99.90;;;;;;4944685;28;20200;-52
2023/08/13 10:26:29;;;;;;;2.88;1.42;;;21.60;99.90;;;;;;4928674;28;21739;-58
2023/08/13 10:28:56;;;;;;;3.28;1.35;;;21.60;99.90;;;;;;4950121;28;20258;-54
2023/08/13 10:31:34;;;;;;;3.72;1.25;;;21.70;99.90;;;;;;4937599;28;20300;-48
2023/08/13 10:34:02;;;;;;;3.35;1.55;;;21.90;99.90;;;;;;4948519;28;20198;-61
2023/08/13 10:37:01;;;;;;;1.10;0.90;;;22.00;99.90;;;;;;4941642;28;20190;-56
2023/08/13 10:39:36;;;;;;;3.42;1.40;;;22.10;99.90;;;;;;4947768;28;20198;-50
2023/08/13 10:42:05;;;;;;;2.67;0.88;;;22.10;99.90;;;;;;4932718;28;20327;-59
2023/08/13 10:44:33;;;;;;;3.38;1.30;;;22.10;99.90;;;;;;4953396;28;20230;-51
2023/08/13 10:47:03;;;;;;;3.80;1.40;;;22.20;99.90;;;;;;4951208;28;20195;-61
2023/08/13 10:49:30;;;;;;;2.63;1.08;;;22.20;99.90;;;;;;4939088;28;20285;-51
2023/08/13 10:52:01;;;;;;;3.92;1.13;;;22.20;99.90;;;;;;4952237;28;20206;-62
2023/08/13 10:54:28;;;;;;;1.85;1.15;;;22.10;99.90;;;;;;4949055;28;20218;-53
2023/08/13 10:56:58;;;;;;;3.55;1.27;;;22.20;99.90;;;;;;4941531;28;20678;-59
2023/08/13 10:59:29;;;;;;;3.10;1.00;;;22.30;99.90;;;;;;4923228;28;20236;-55
2023/08/13 11:02:17;;;;;;;6.10;1.63;;;22.50;99.90;;;;;;4948327;28;20273;-63
2023/08/13 11:04:46;;;;;;;2.78;1.02;;;22.60;99.90;;;;;;4944022;28;20231;-48
2023/08/13 11:07:14;;;;;;;3.40;0.95;;;22.60;99.90;;;;;;4927509;28;21021;-58
2023/08/13 11:09:43;;;;;;;7.93;1.27;;;22.60;99.90;;;;;;4945357;28;20250;-53
2023/08/13 11:12:10;;;;;;;5.40;1.25;;;22.60;99.90;;;;;;4940339;28;20222;-59
2023/08/13 11:14:38;;;;;;;4.72;1.80;;;22.70;99.90;;;;;;4928015;28;20305;-51
2023/08/13 11:17:05;;;;;;;1.85;1.10;;;22.70;99.90;;;;;;4952649;28;20202;-56
2023/08/13 11:19:34;;;;;;;7.30;1.52;;;22.70;99.90;;;;;;4942115;28;20225;-45
2023/08/13 11:22:02;;;;;;;5.50;1.40;;;22.80;99.90;;;;;;4935714;28;20210;-59
2023/08/13 11:24:31;;;;;;;3.08;1.30;;;23.10;99.90;;;;;;4948916;28;20230;-52
2023/08/13 11:26:59;;;;;;;100.88;8.02;;;23.20;99.90;;;;;;4943584;28;20198;-60
2023/08/13 11:29:25;;;;;;;4.97;1.40;;;23.20;99.90;;;;;;4923673;28;20274;-46
2023/08/13 11:31:52;;;;;;;8.52;1.73;;;23.20;99.90;;;;;;4946977;28;20211;-53
2023/08/13 11:34:19;;;;;;;8.68;1.58;;;23.20;99.90;;;;;;4947089;28;20215;-51
2023/08/13 11:36:50;;;;;;;3.42;1.48;;;23.00;99.90;;;;;;4934568;28;20243;-46
2023/08/13 11:39:18;;;;;;;2.10;1.05;;;22.90;99.90;;;;;;4943393;29;20207;-45
2023/08/13 11:41:45;;;;;;;3.45;1.00;;;23.00;99.90;;;;;;4947396;28;20203;-50
2023/08/13 11:44:12;;;;;;;3.72;1.65;;;23.20;99.90;;;;;;4915558;28;23436;-59
2023/08/13 11:46:52;;;;;;;2.75;1.17;;;23.30;99.90;;;;;;4956586;28;20273;-49
2023/08/13 11:49:19;;;;;;;5.15;0.95;;;23.50;99.90;;;;;;4949609;28;20227;-48
2023/08/13 11:51:48;;;;;;;2.60;0.90;;;23.60;99.90;;;;;;4941116;28;20222;-50
2023/08/13 11:54:18;;;;;;;1.70;0.75;;;23.80;99.90;;;;;;4936561;28;21085;-48
2023/08/13 11:56:44;;;;;;;1.25;1.05;;;23.90;99.90;;;;;;4939119;29;20246;-45
2023/08/13 11:59:12;;;;;;;2.92;1.10;;;23.70;99.90;;;;;;4946300;28;20206;-56
2023/08/13 12:01:39;;;;;;;1.70;1.00;;;23.60;99.90;;;;;;4926311;28;20265;-46
2023/08/13 12:04:06;;;;;;;1.10;1.00;;;23.50;99.90;;;;;;4948468;28;20198;-63
2023/08/13 12:06:35;;;;;;;2.75;1.00;;;23.50;99.90;;;;;;4947255;28;20206;-45
2023/08/13 12:09:04;;;;;;;1.08;0.80;;;23.60;99.90;;;;;;4935494;28;20213;-59
2023/08/13 12:11:32;;;;;;;3.67;1.17;;;23.70;99.90;;;;;;4940419;28;20301;-54
2023/08/13 12:14:06;;;;;;;3.53;0.70;;;23.60;99.90;;;;;;4941442;28;20260;-61
2023/08/13 12:16:32;;;;;;;1.58;0.65;;;23.60;99.90;;;;;;4922114;28;20215;-54
2023/08/13 12:19:00;;;;;;;2.28;0.88;;;23.70;99.90;;;;;;4948450;28;20731;-61
2023/08/13 12:21:27;;;;;;;2.58;1.00;;;23.80;99.90;;;;;;4952393;28;20293;-48
2023/08/13 12:23:54;;;;;;;1.70;0.80;;;23.80;99.90;;;;;;4940283;28;20206;-57
2023/08/13 12:26:22;;;;;;;1.55;0.93;;;23.60;99.90;;;;;;4952419;28;20218;-49
2023/08/13 12:28:50;;;;;;;2.15;0.90;;;23.50;99.90;;;;;;4954696;28;20207;-54
2023/08/13 12:31:18;;;;;;;3.67;1.10;;;23.70;99.90;;;;;;4917865;28;20262;-50
2023/08/13 12:33:45;;;;;;;1.77;0.90;;;23.90;99.90;;;;;;4948629;28;20935;-46
2023/08/13 12:36:12;;;;;;;2.50;1.35;;;24.10;99.90;;;;;;4946995;28;20270;-49
2023/08/13 12:38:39;;;;;;;1.92;0.90;;;24.10;99.90;;;;;;4925806;28;20202;-46
2023/08/13 12:41:06;;;;;;;0.80;0.77;;;24.30;99.90;;;;;;4947500;28;20199;-61
2023/08/13 12:43:36;;;;;;;2.08;0.98;;;24.50;99.90;;;;;;4954850;28;20282;-53
2023/08/13 12:46:05;;;;;;;1.08;0.70;;;24.40;99.90;;;;;;4926412;28;20230;-59
2023/08/13 12:48:32;;;;;;;2.42;0.90;;;24.40;99.90;;;;;;4940610;28;20582;-51
2023/08/13 12:50:59;;;;;;;1.63;1.02;;;24.50;99.90;;;;;;4949382;28;20585;-60